sensor_id;sensor_type;location;lat;lon;timestamp;P1;durP1;ratioP1;P2;durP2;ratioP2
84007;SDS011;74070;50.948;6.954;2023-12-20T00:00:33;18.60;;;14.57;;
84007;SDS011;74070;50.948;6.954;2023-12-20T00:03:00;19.43;;;13.50;;
84007;SDS011;74070;50.948;6.954;2023-12-20T00:05:26;17.90;;;14.47;;
84007;SDS011;74070;50.948;6.954;2023-12-20T00:07:53;17.67;;;12.83;;
84007;SDS011;74070;50.948;6.954;2023-12-20T00:10:20;16.77;;;12.53;;
84007;SDS011;74070;50.948;6.954;2023-12-20T00:12:46;15.90;;;13.70;;
84007;SDS011;74070;50.948;6.954;2023-12-20T00:15:13;16.67;;;13.97;;
84007;SDS011;74070;50.948;6.954;2023-12-20T00:17:39;17.97;;;14.13;;
84007;SDS011;74070;50.948;6.954;2023-12-20T00:20:07;17.10;;;12.37;;
84007;SDS011;74070;50.948;6.954;2023-12-20T00:22:34;16.77;;;13.10;;
84007;SDS011;74070;50.948;6.954;2023-12-20T00:25:00;15.93;;;11.30;;
84007;SDS011;74070;50.948;6.954;2023-12-20T00:27:27;18.30;;;13.80;;
84007;SDS011;74070;50.948;6.954;2023-12-20T00:29:53;16.03;;;12.40;;
84007;SDS011;74070;50.948;6.954;2023-12-20T00:32:20;14.63;;;11.43;;
84007;SDS011;74070;50.948;6.954;2023-12-20T00:34:47;12.30;;;9.33;;
84007;SDS011;74070;50.948;6.954;2023-12-20T00:37:15;10.03;;;8.53;;
84007;SDS011;74070;50.948;6.954;2023-12-20T00:39:42;10.80;;;6.70;;
84007;SDS011;74070;50.948;6.954;2023-12-20T00:42:09;9.43;;;6.40;;
84007;SDS011;74070;50.948;6.954;2023-12-20T00:44:35;8.20;;;7.23;;
84007;SDS011;74070;50.948;6.954;2023-12-20T00:47:02;8.23;;;7.07;;
84007;SDS011;74070;50.948;6.954;2023-12-20T00:49:28;11.17;;;7.93;;
84007;SDS011;74070;50.948;6.954;2023-12-20T00:51:55;8.13;;;7.17;;
84007;SDS011;74070;50.948;6.954;2023-12-20T00:54:22;8.60;;;6.70;;
84007;SDS011;74070;50.948;6.954;2023-12-20T00:56:48;9.07;;;6.90;;
84007;SDS011;74070;50.948;6.954;2023-12-20T00:59:16;9.83;;;7.67;;
84007;SDS011;74070;50.948;6.954;2023-12-20T01:01:41;9.00;;;7.23;;
84007;SDS011;74070;50.948;6.954;2023-12-20T01:04:08;8.67;;;6.13;;
84007;SDS011;74070;50.948;6.954;2023-12-20T01:06:35;8.33;;;6.47;;
84007;SDS011;74070;50.948;6.954;2023-12-20T01:09:01;13.00;;;7.93;;
84007;SDS011;74070;50.948;6.954;2023-12-20T01:11:28;8.73;;;7.50;;
84007;SDS011;74070;50.948;6.954;2023-12-20T01:13:55;10.27;;;7.10;;
84007;SDS011;74070;50.948;6.954;2023-12-20T01:16:22;10.03;;;7.40;;
84007;SDS011;74070;50.948;6.954;2023-12-20T01:18:48;9.80;;;7.77;;
84007;SDS011;74070;50.948;6.954;2023-12-20T01:21:16;14.37;;;7.40;;
84007;SDS011;74070;50.948;6.954;2023-12-20T01:23:43;13.90;;;8.30;;
84007;SDS011;74070;50.948;6.954;2023-12-20T01:26:10;12.30;;;8.40;;
84007;SDS011;74070;50.948;6.954;2023-12-20T01:28:38;15.27;;;8.50;;
84007;SDS011;74070;50.948;6.954;2023-12-20T01:31:05;20.80;;;8.87;;
84007;SDS011;74070;50.948;6.954;2023-12-20T01:33:32;18.97;;;9.27;;
84007;SDS011;74070;50.948;6.954;2023-12-20T01:35:58;12.67;;;7.53;;
84007;SDS011;74070;50.948;6.954;2023-12-20T01:38:25;15.13;;;9.03;;
84007;SDS011;74070;50.948;6.954;2023-12-20T01:40:52;17.67;;;9.20;;
84007;SDS011;74070;50.948;6.954;2023-12-20T01:43:18;19.67;;;10.07;;
84007;SDS011;74070;50.948;6.954;2023-12-20T01:45:45;16.10;;;9.03;;
84007;SDS011;74070;50.948;6.954;2023-12-20T01:48:11;13.90;;;9.80;;
84007;SDS011;74070;50.948;6.954;2023-12-20T01:50:38;19.73;;;10.67;;
84007;SDS011;74070;50.948;6.954;2023-12-20T01:53:05;16.43;;;10.90;;
84007;SDS011;74070;50.948;6.954;2023-12-20T01:55:31;18.17;;;11.80;;
84007;SDS011;74070;50.948;6.954;2023-12-20T01:57:58;18.57;;;11.17;;
84007;SDS011;74070;50.948;6.954;2023-12-20T02:00:24;15.10;;;10.13;;
84007;SDS011;74070;50.948;6.954;2023-12-20T02:02:51;14.90;;;10.47;;
84007;SDS011;74070;50.948;6.954;2023-12-20T02:05:17;19.33;;;11.90;;
84007;SDS011;74070;50.948;6.954;2023-12-20T02:07:45;17.27;;;9.70;;
84007;SDS011;74070;50.948;6.954;2023-12-20T02:10:11;15.63;;;10.53;;
84007;SDS011;74070;50.948;6.954;2023-12-20T02:12:38;11.73;;;10.07;;
84007;SDS011;74070;50.948;6.954;2023-12-20T02:15:05;17.07;;;9.50;;
84007;SDS011;74070;50.948;6.954;2023-12-20T02:17:32;19.00;;;11.50;;
84007;SDS011;74070;50.948;6.954;2023-12-20T02:19:58;18.07;;;11.27;;
84007;SDS011;74070;50.948;6.954;2023-12-20T02:22:25;20.77;;;10.63;;
84007;SDS011;74070;50.948;6.954;2023-12-20T02:24:52;18.80;;;10.20;;
84007;SDS011;74070;50.948;6.954;2023-12-20T02:27:18;20.60;;;8.77;;
84007;SDS011;74070;50.948;6.954;2023-12-20T02:29:46;14.20;;;7.83;;
84007;SDS011;74070;50.948;6.954;2023-12-20T02:32:11;18.70;;;5.53;;
84007;SDS011;74070;50.948;6.954;2023-12-20T02:34:38;11.60;;;5.47;;
84007;SDS011;74070;50.948;6.954;2023-12-20T02:37:05;17.87;;;5.70;;
84007;SDS011;74070;50.948;6.954;2023-12-20T02:39:31;16.43;;;5.87;;
84007;SDS011;74070;50.948;6.954;2023-12-20T02:41:58;17.10;;;6.83;;
84007;SDS011;74070;50.948;6.954;2023-12-20T02:44:25;17.90;;;5.50;;
84007;SDS011;74070;50.948;6.954;2023-12-20T02:46:53;15.93;;;5.40;;
84007;SDS011;74070;50.948;6.954;2023-12-20T02:49:20;17.03;;;5.67;;
84007;SDS011;74070;50.948;6.954;2023-12-20T02:51:47;15.30;;;4.63;;
84007;SDS011;74070;50.948;6.954;2023-12-20T02:54:13;17.07;;;5.53;;
84007;SDS011;74070;50.948;6.954;2023-12-20T02:56:40;19.57;;;5.63;;
84007;SDS011;74070;50.948;6.954;2023-12-20T02:59:06;12.73;;;3.87;;
84007;SDS011;74070;50.948;6.954;2023-12-20T03:01:33;13.07;;;3.20;;
84007;SDS011;74070;50.948;6.954;2023-12-20T03:04:00;12.40;;;3.30;;
84007;SDS011;74070;50.948;6.954;2023-12-20T03:06:26;14.73;;;3.33;;
84007;SDS011;74070;50.948;6.954;2023-12-20T03:08:53;9.17;;;3.40;;
84007;SDS011;74070;50.948;6.954;2023-12-20T03:11:19;11.23;;;2.90;;
84007;SDS011;74070;50.948;6.954;2023-12-20T03:13:47;15.67;;;2.97;;
84007;SDS011;74070;50.948;6.954;2023-12-20T03:16:14;7.40;;;2.33;;
84007;SDS011;74070;50.948;6.954;2023-12-20T03:18:41;10.67;;;3.13;;
84007;SDS011;74070;50.948;6.954;2023-12-20T03:21:09;17.60;;;3.57;;
84007;SDS011;74070;50.948;6.954;2023-12-20T03:23:36;12.90;;;2.87;;
84007;SDS011;74070;50.948;6.954;2023-12-20T03:26:03;15.87;;;3.37;;
84007;SDS011;74070;50.948;6.954;2023-12-20T03:28:30;12.60;;;2.90;;
84007;SDS011;74070;50.948;6.954;2023-12-20T03:30:57;13.70;;;3.80;;
84007;SDS011;74070;50.948;6.954;2023-12-20T03:33:23;11.70;;;3.67;;
84007;SDS011;74070;50.948;6.954;2023-12-20T03:35:50;8.37;;;2.77;;
84007;SDS011;74070;50.948;6.954;2023-12-20T03:38:17;15.73;;;3.13;;
84007;SDS011;74070;50.948;6.954;2023-12-20T03:40:43;18.97;;;3.27;;
84007;SDS011;74070;50.948;6.954;2023-12-20T03:43:10;14.90;;;3.10;;
84007;SDS011;74070;50.948;6.954;2023-12-20T03:45:36;15.10;;;3.40;;
84007;SDS011;74070;50.948;6.954;2023-12-20T03:48:03;16.93;;;3.00;;
84007;SDS011;74070;50.948;6.954;2023-12-20T03:50:31;10.73;;;3.03;;
84007;SDS011;74070;50.948;6.954;2023-12-20T03:52:57;8.53;;;2.93;;
84007;SDS011;74070;50.948;6.954;2023-12-20T03:55:24;13.40;;;3.03;;
84007;SDS011;74070;50.948;6.954;2023-12-20T03:57:51;14.33;;;2.63;;
84007;SDS011;74070;50.948;6.954;2023-12-20T04:00:17;15.27;;;3.07;;
84007;SDS011;74070;50.948;6.954;2023-12-20T04:02:44;14.47;;;3.40;;
84007;SDS011;74070;50.948;6.954;2023-12-20T04:05:10;13.03;;;3.20;;
84007;SDS011;74070;50.948;6.954;2023-12-20T04:07:37;12.40;;;2.70;;
84007;SDS011;74070;50.948;6.954;2023-12-20T04:10:04;14.07;;;3.40;;
84007;SDS011;74070;50.948;6.954;2023-12-20T04:12:31;13.87;;;3.20;;
84007;SDS011;74070;50.948;6.954;2023-12-20T04:14:57;12.70;;;3.73;;
84007;SDS011;74070;50.948;6.954;2023-12-20T04:17:24;9.67;;;3.03;;
84007;SDS011;74070;50.948;6.954;2023-12-20T04:19:51;19.07;;;3.27;;
84007;SDS011;74070;50.948;6.954;2023-12-20T04:22:17;10.27;;;3.17;;
84007;SDS011;74070;50.948;6.954;2023-12-20T04:24:45;12.87;;;4.20;;
84007;SDS011;74070;50.948;6.954;2023-12-20T04:27:12;12.07;;;4.20;;
84007;SDS011;74070;50.948;6.954;2023-12-20T04:29:39;11.73;;;3.57;;
84007;SDS011;74070;50.948;6.954;2023-12-20T04:32:07;14.93;;;3.23;;
84007;SDS011;74070;50.948;6.954;2023-12-20T04:34:34;12.70;;;3.27;;
84007;SDS011;74070;50.948;6.954;2023-12-20T04:37:01;14.93;;;3.87;;
84007;SDS011;74070;50.948;6.954;2023-12-20T04:39:29;16.60;;;4.63;;
84007;SDS011;74070;50.948;6.954;2023-12-20T04:41:56;12.60;;;3.07;;
84007;SDS011;74070;50.948;6.954;2023-12-20T04:44:23;19.83;;;4.60;;
84007;SDS011;74070;50.948;6.954;2023-12-20T04:46:51;17.20;;;4.13;;
84007;SDS011;74070;50.948;6.954;2023-12-20T04:49:18;18.93;;;3.30;;
84007;SDS011;74070;50.948;6.954;2023-12-20T04:51:45;16.23;;;3.93;;
84007;SDS011;74070;50.948;6.954;2023-12-20T04:54:12;18.27;;;5.07;;
84007;SDS011;74070;50.948;6.954;2023-12-20T04:56:39;20.53;;;4.30;;
84007;SDS011;74070;50.948;6.954;2023-12-20T04:59:05;12.80;;;3.83;;
84007;SDS011;74070;50.948;6.954;2023-12-20T05:01:32;20.43;;;3.70;;
84007;SDS011;74070;50.948;6.954;2023-12-20T05:03:58;13.80;;;4.60;;
84007;SDS011;74070;50.948;6.954;2023-12-20T05:06:25;13.87;;;3.87;;
84007;SDS011;74070;50.948;6.954;2023-12-20T05:08:52;14.40;;;3.80;;
84007;SDS011;74070;50.948;6.954;2023-12-20T05:11:18;15.63;;;4.23;;
84007;SDS011;74070;50.948;6.954;2023-12-20T05:13:45;15.07;;;5.47;;
84007;SDS011;74070;50.948;6.954;2023-12-20T05:16:12;11.47;;;3.37;;
84007;SDS011;74070;50.948;6.954;2023-12-20T05:18:40;12.10;;;4.00;;
84007;SDS011;74070;50.948;6.954;2023-12-20T05:21:07;9.93;;;3.37;;
84007;SDS011;74070;50.948;6.954;2023-12-20T05:23:33;15.33;;;4.70;;
84007;SDS011;74070;50.948;6.954;2023-12-20T05:26:00;14.20;;;4.70;;
84007;SDS011;74070;50.948;6.954;2023-12-20T05:28:27;8.63;;;3.90;;
84007;SDS011;74070;50.948;6.954;2023-12-20T05:30:55;11.03;;;3.30;;
84007;SDS011;74070;50.948;6.954;2023-12-20T05:33:22;13.57;;;3.97;;
84007;SDS011;74070;50.948;6.954;2023-12-20T05:35:50;11.93;;;3.80;;
84007;SDS011;74070;50.948;6.954;2023-12-20T05:38:17;17.90;;;4.90;;
84007;SDS011;74070;50.948;6.954;2023-12-20T05:40:43;15.73;;;4.30;;
84007;SDS011;74070;50.948;6.954;2023-12-20T05:43:10;15.67;;;4.07;;
84007;SDS011;74070;50.948;6.954;2023-12-20T05:45:37;15.40;;;4.57;;
84007;SDS011;74070;50.948;6.954;2023-12-20T05:48:03;12.77;;;3.83;;
84007;SDS011;74070;50.948;6.954;2023-12-20T05:50:30;17.77;;;4.53;;
84007;SDS011;74070;50.948;6.954;2023-12-20T05:52:57;15.90;;;4.83;;
84007;SDS011;74070;50.948;6.954;2023-12-20T05:55:23;10.97;;;4.47;;
84007;SDS011;74070;50.948;6.954;2023-12-20T05:57:50;18.73;;;3.90;;
84007;SDS011;74070;50.948;6.954;2023-12-20T06:00:17;20.97;;;5.07;;
84007;SDS011;74070;50.948;6.954;2023-12-20T06:02:45;21.10;;;4.80;;
84007;SDS011;74070;50.948;6.954;2023-12-20T06:05:12;12.33;;;3.07;;
84007;SDS011;74070;50.948;6.954;2023-12-20T06:07:39;13.67;;;3.57;;
84007;SDS011;74070;50.948;6.954;2023-12-20T06:10:07;15.30;;;3.57;;
84007;SDS011;74070;50.948;6.954;2023-12-20T06:12:34;13.17;;;3.47;;
84007;SDS011;74070;50.948;6.954;2023-12-20T06:15:00;15.60;;;4.23;;
84007;SDS011;74070;50.948;6.954;2023-12-20T06:17:27;14.50;;;4.10;;
84007;SDS011;74070;50.948;6.954;2023-12-20T06:19:53;19.00;;;4.70;;
84007;SDS011;74070;50.948;6.954;2023-12-20T06:22:20;15.20;;;3.97;;
84007;SDS011;74070;50.948;6.954;2023-12-20T06:24:47;17.80;;;5.23;;
84007;SDS011;74070;50.948;6.954;2023-12-20T06:27:14;21.50;;;4.60;;
84007;SDS011;74070;50.948;6.954;2023-12-20T06:29:41;11.97;;;3.07;;
84007;SDS011;74070;50.948;6.954;2023-12-20T06:32:08;13.27;;;3.87;;
84007;SDS011;74070;50.948;6.954;2023-12-20T06:34:34;14.93;;;4.00;;
84007;SDS011;74070;50.948;6.954;2023-12-20T06:37:01;14.50;;;4.93;;
84007;SDS011;74070;50.948;6.954;2023-12-20T06:39:28;14.10;;;4.57;;
84007;SDS011;74070;50.948;6.954;2023-12-20T06:41:54;16.90;;;4.60;;
84007;SDS011;74070;50.948;6.954;2023-12-20T06:44:21;18.37;;;4.40;;
84007;SDS011;74070;50.948;6.954;2023-12-20T06:46:47;27.47;;;5.90;;
84007;SDS011;74070;50.948;6.954;2023-12-20T06:49:15;14.87;;;4.33;;
84007;SDS011;74070;50.948;6.954;2023-12-20T06:51:42;16.70;;;3.73;;
84007;SDS011;74070;50.948;6.954;2023-12-20T06:54:09;11.63;;;3.23;;
84007;SDS011;74070;50.948;6.954;2023-12-20T06:56:37;20.50;;;4.30;;
84007;SDS011;74070;50.948;6.954;2023-12-20T06:59:04;13.40;;;3.37;;
84007;SDS011;74070;50.948;6.954;2023-12-20T07:01:32;12.10;;;4.33;;
84007;SDS011;74070;50.948;6.954;2023-12-20T07:03:59;13.67;;;3.07;;
84007;SDS011;74070;50.948;6.954;2023-12-20T07:06:26;24.40;;;4.27;;
84007;SDS011;74070;50.948;6.954;2023-12-20T07:08:52;13.10;;;3.77;;
84007;SDS011;74070;50.948;6.954;2023-12-20T07:11:19;17.57;;;3.90;;
84007;SDS011;74070;50.948;6.954;2023-12-20T07:13:45;9.60;;;2.53;;
84007;SDS011;74070;50.948;6.954;2023-12-20T07:16:12;14.90;;;3.40;;
84007;SDS011;74070;50.948;6.954;2023-12-20T07:18:38;16.03;;;3.60;;
84007;SDS011;74070;50.948;6.954;2023-12-20T07:21:05;16.40;;;4.07;;
84007;SDS011;74070;50.948;6.954;2023-12-20T07:23:32;8.43;;;3.50;;
84007;SDS011;74070;50.948;6.954;2023-12-20T07:25:58;10.63;;;2.70;;
84007;SDS011;74070;50.948;6.954;2023-12-20T07:28:25;15.20;;;4.07;;
84007;SDS011;74070;50.948;6.954;2023-12-20T07:30:51;12.97;;;3.77;;
84007;SDS011;74070;50.948;6.954;2023-12-20T07:33:19;19.77;;;4.27;;
84007;SDS011;74070;50.948;6.954;2023-12-20T07:35:46;25.47;;;4.83;;
84007;SDS011;74070;50.948;6.954;2023-12-20T07:38:14;14.30;;;4.43;;
84007;SDS011;74070;50.948;6.954;2023-12-20T07:40:41;14.73;;;5.53;;
84007;SDS011;74070;50.948;6.954;2023-12-20T07:43:08;14.63;;;4.40;;
84007;SDS011;74070;50.948;6.954;2023-12-20T07:45:36;9.70;;;4.07;;
84007;SDS011;74070;50.948;6.954;2023-12-20T07:48:03;9.50;;;3.10;;
84007;SDS011;74070;50.948;6.954;2023-12-20T07:50:30;14.00;;;4.80;;
84007;SDS011;74070;50.948;6.954;2023-12-20T07:52:57;14.40;;;5.80;;
84007;SDS011;74070;50.948;6.954;2023-12-20T07:55:23;15.33;;;3.63;;
84007;SDS011;74070;50.948;6.954;2023-12-20T07:57:50;12.23;;;3.90;;
84007;SDS011;74070;50.948;6.954;2023-12-20T08:00:17;19.53;;;4.20;;
84007;SDS011;74070;50.948;6.954;2023-12-20T08:02:43;8.57;;;3.27;;
84007;SDS011;74070;50.948;6.954;2023-12-20T08:05:10;12.87;;;3.93;;
84007;SDS011;74070;50.948;6.954;2023-12-20T08:07:37;14.57;;;3.20;;
84007;SDS011;74070;50.948;6.954;2023-12-20T08:10:03;17.07;;;3.97;;
84007;SDS011;74070;50.948;6.954;2023-12-20T08:12:30;16.73;;;4.43;;
84007;SDS011;74070;50.948;6.954;2023-12-20T08:14:57;16.17;;;4.43;;
84007;SDS011;74070;50.948;6.954;2023-12-20T08:17:24;18.40;;;4.23;;
84007;SDS011;74070;50.948;6.954;2023-12-20T08:19:51;12.83;;;4.10;;
84007;SDS011;74070;50.948;6.954;2023-12-20T08:22:17;19.40;;;4.13;;
84007;SDS011;74070;50.948;6.954;2023-12-20T08:24:44;15.87;;;5.13;;
84007;SDS011;74070;50.948;6.954;2023-12-20T08:27:10;8.37;;;2.93;;
84007;SDS011;74070;50.948;6.954;2023-12-20T08:29:37;16.77;;;3.83;;
84007;SDS011;74070;50.948;6.954;2023-12-20T08:32:04;10.10;;;3.40;;
84007;SDS011;74070;50.948;6.954;2023-12-20T08:34:31;19.80;;;4.80;;
84007;SDS011;74070;50.948;6.954;2023-12-20T08:36:57;13.90;;;4.37;;
84007;SDS011;74070;50.948;6.954;2023-12-20T08:39:24;12.37;;;4.33;;
84007;SDS011;74070;50.948;6.954;2023-12-20T08:41:52;13.43;;;4.10;;
84007;SDS011;74070;50.948;6.954;2023-12-20T08:44:19;15.70;;;4.30;;
84007;SDS011;74070;50.948;6.954;2023-12-20T08:46:47;11.40;;;3.30;;
84007;SDS011;74070;50.948;6.954;2023-12-20T08:49:13;16.40;;;3.57;;
84007;SDS011;74070;50.948;6.954;2023-12-20T08:51:40;15.63;;;3.73;;
84007;SDS011;74070;50.948;6.954;2023-12-20T08:54:06;11.30;;;3.20;;
84007;SDS011;74070;50.948;6.954;2023-12-20T08:56:34;14.90;;;3.70;;
84007;SDS011;74070;50.948;6.954;2023-12-20T08:59:00;11.73;;;3.47;;
84007;SDS011;74070;50.948;6.954;2023-12-20T09:01:27;10.40;;;3.53;;
84007;SDS011;74070;50.948;6.954;2023-12-20T09:03:53;17.73;;;4.87;;
84007;SDS011;74070;50.948;6.954;2023-12-20T09:06:20;11.20;;;3.40;;
84007;SDS011;74070;50.948;6.954;2023-12-20T09:08:47;10.57;;;3.50;;
84007;SDS011;74070;50.948;6.954;2023-12-20T09:11:15;14.50;;;3.10;;
84007;SDS011;74070;50.948;6.954;2023-12-20T09:13:41;15.93;;;3.90;;
84007;SDS011;74070;50.948;6.954;2023-12-20T09:16:08;14.17;;;3.40;;
84007;SDS011;74070;50.948;6.954;2023-12-20T09:18:35;9.73;;;3.10;;
84007;SDS011;74070;50.948;6.954;2023-12-20T09:21:02;14.00;;;2.77;;
84007;SDS011;74070;50.948;6.954;2023-12-20T09:23:29;11.43;;;3.50;;
84007;SDS011;74070;50.948;6.954;2023-12-20T09:25:55;14.50;;;4.17;;
84007;SDS011;74070;50.948;6.954;2023-12-20T09:28:22;12.97;;;3.63;;
84007;SDS011;74070;50.948;6.954;2023-12-20T09:30:48;11.93;;;3.00;;
84007;SDS011;74070;50.948;6.954;2023-12-20T09:33:15;6.73;;;2.40;;
84007;SDS011;74070;50.948;6.954;2023-12-20T09:35:42;16.63;;;4.20;;
84007;SDS011;74070;50.948;6.954;2023-12-20T09:38:10;10.43;;;3.17;;
84007;SDS011;74070;50.948;6.954;2023-12-20T09:40:36;11.53;;;2.90;;
84007;SDS011;74070;50.948;6.954;2023-12-20T09:43:03;13.57;;;3.13;;
84007;SDS011;74070;50.948;6.954;2023-12-20T09:45:30;15.53;;;3.57;;
84007;SDS011;74070;50.948;6.954;2023-12-20T09:47:56;10.20;;;3.10;;
84007;SDS011;74070;50.948;6.954;2023-12-20T09:50:23;10.27;;;3.07;;
84007;SDS011;74070;50.948;6.954;2023-12-20T09:52:50;16.07;;;3.30;;
84007;SDS011;74070;50.948;6.954;2023-12-20T09:55:17;14.87;;;3.93;;
84007;SDS011;74070;50.948;6.954;2023-12-20T09:57:43;14.73;;;3.93;;
84007;SDS011;74070;50.948;6.954;2023-12-20T10:00:10;12.37;;;3.03;;
84007;SDS011;74070;50.948;6.954;2023-12-20T10:02:38;11.03;;;3.13;;
84007;SDS011;74070;50.948;6.954;2023-12-20T10:05:06;13.83;;;3.53;;
84007;SDS011;74070;50.948;6.954;2023-12-20T10:07:31;18.43;;;4.43;;
84007;SDS011;74070;50.948;6.954;2023-12-20T10:09:58;8.00;;;2.77;;
84007;SDS011;74070;50.948;6.954;2023-12-20T10:12:24;11.40;;;2.77;;
84007;SDS011;74070;50.948;6.954;2023-12-20T10:14:51;16.70;;;3.53;;
84007;SDS011;74070;50.948;6.954;2023-12-20T10:17:17;11.40;;;3.23;;
84007;SDS011;74070;50.948;6.954;2023-12-20T10:19:44;15.43;;;2.90;;
84007;SDS011;74070;50.948;6.954;2023-12-20T10:22:11;14.63;;;3.20;;
84007;SDS011;74070;50.948;6.954;2023-12-20T10:24:37;15.20;;;4.40;;
84007;SDS011;74070;50.948;6.954;2023-12-20T10:27:04;15.97;;;3.33;;
84007;SDS011;74070;50.948;6.954;2023-12-20T10:29:31;14.27;;;3.70;;
84007;SDS011;74070;50.948;6.954;2023-12-20T10:34:42;13.43;;;3.97;;
84007;SDS011;74070;50.948;6.954;2023-12-20T10:37:09;11.20;;;3.03;;
84007;SDS011;74070;50.948;6.954;2023-12-20T10:39:35;11.97;;;3.33;;
84007;SDS011;74070;50.948;6.954;2023-12-20T10:42:02;8.27;;;2.80;;
84007;SDS011;74070;50.948;6.954;2023-12-20T10:44:29;12.40;;;2.70;;
84007;SDS011;74070;50.948;6.954;2023-12-20T10:46:55;6.87;;;2.60;;
84007;SDS011;74070;50.948;6.954;2023-12-20T10:49:22;12.80;;;3.47;;
84007;SDS011;74070;50.948;6.954;2023-12-20T10:51:48;13.87;;;3.97;;
84007;SDS011;74070;50.948;6.954;2023-12-20T10:54:15;11.40;;;2.83;;
84007;SDS011;74070;50.948;6.954;2023-12-20T10:56:42;16.63;;;3.90;;
84007;SDS011;74070;50.948;6.954;2023-12-20T10:59:08;7.70;;;2.80;;
84007;SDS011;74070;50.948;6.954;2023-12-20T11:01:35;10.87;;;2.87;;
84007;SDS011;74070;50.948;6.954;2023-12-20T11:04:01;6.90;;;2.80;;
84007;SDS011;74070;50.948;6.954;2023-12-20T11:06:40;6.80;;;2.07;;
84007;SDS011;74070;50.948;6.954;2023-12-20T11:09:06;10.70;;;2.73;;
84007;SDS011;74070;50.948;6.954;2023-12-20T11:11:41;13.43;;;3.27;;
84007;SDS011;74070;50.948;6.954;2023-12-20T11:14:06;9.20;;;2.20;;
84007;SDS011;74070;50.948;6.954;2023-12-20T11:16:32;10.63;;;2.73;;
84007;SDS011;74070;50.948;6.954;2023-12-20T11:19:04;11.40;;;2.77;;
84007;SDS011;74070;50.948;6.954;2023-12-20T11:21:26;15.30;;;3.13;;
84007;SDS011;74070;50.948;6.954;2023-12-20T11:23:54;9.13;;;2.70;;
84007;SDS011;74070;50.948;6.954;2023-12-20T11:26:24;11.60;;;3.17;;
84007;SDS011;74070;50.948;6.954;2023-12-20T11:28:50;13.40;;;3.73;;
84007;SDS011;74070;50.948;6.954;2023-12-20T11:31:17;14.00;;;2.60;;
84007;SDS011;74070;50.948;6.954;2023-12-20T11:33:44;10.30;;;2.87;;
84007;SDS011;74070;50.948;6.954;2023-12-20T11:36:13;10.53;;;3.63;;
84007;SDS011;74070;50.948;6.954;2023-12-20T11:38:39;8.77;;;2.70;;
84007;SDS011;74070;50.948;6.954;2023-12-20T11:41:06;11.90;;;3.23;;
84007;SDS011;74070;50.948;6.954;2023-12-20T11:43:32;12.33;;;3.03;;
84007;SDS011;74070;50.948;6.954;2023-12-20T11:48:32;18.57;;;3.30;;
84007;SDS011;74070;50.948;6.954;2023-12-20T11:50:58;10.87;;;2.70;;
84007;SDS011;74070;50.948;6.954;2023-12-20T11:53:25;15.37;;;3.83;;
84007;SDS011;74070;50.948;6.954;2023-12-20T11:55:51;9.10;;;2.13;;
84007;SDS011;74070;50.948;6.954;2023-12-20T11:58:18;13.53;;;2.97;;
84007;SDS011;74070;50.948;6.954;2023-12-20T12:00:45;12.57;;;3.67;;
84007;SDS011;74070;50.948;6.954;2023-12-20T12:03:14;10.43;;;3.43;;
84007;SDS011;74070;50.948;6.954;2023-12-20T12:05:38;11.90;;;2.40;;
84007;SDS011;74070;50.948;6.954;2023-12-20T12:08:05;13.57;;;3.30;;
84007;SDS011;74070;50.948;6.954;2023-12-20T12:10:32;9.13;;;2.77;;
84007;SDS011;74070;50.948;6.954;2023-12-20T12:12:59;8.13;;;2.33;;
84007;SDS011;74070;50.948;6.954;2023-12-20T12:15:26;11.23;;;2.77;;
84007;SDS011;74070;50.948;6.954;2023-12-20T12:17:53;10.13;;;2.27;;
84007;SDS011;74070;50.948;6.954;2023-12-20T12:20:20;9.50;;;2.70;;
84007;SDS011;74070;50.948;6.954;2023-12-20T12:22:46;13.77;;;3.27;;
84007;SDS011;74070;50.948;6.954;2023-12-20T12:25:13;15.17;;;3.23;;
84007;SDS011;74070;50.948;6.954;2023-12-20T12:27:40;10.23;;;3.03;;
84007;SDS011;74070;50.948;6.954;2023-12-20T12:30:06;8.83;;;3.33;;
84007;SDS011;74070;50.948;6.954;2023-12-20T12:32:33;14.27;;;4.27;;
84007;SDS011;74070;50.948;6.954;2023-12-20T12:35:00;11.13;;;3.03;;
84007;SDS011;74070;50.948;6.954;2023-12-20T12:37:26;18.13;;;3.30;;
84007;SDS011;74070;50.948;6.954;2023-12-20T12:39:54;10.60;;;2.70;;
84007;SDS011;74070;50.948;6.954;2023-12-20T12:42:21;12.57;;;3.33;;
84007;SDS011;74070;50.948;6.954;2023-12-20T12:44:48;12.87;;;3.07;;
84007;SDS011;74070;50.948;6.954;2023-12-20T12:47:16;6.83;;;2.33;;
84007;SDS011;74070;50.948;6.954;2023-12-20T12:49:43;12.70;;;2.60;;
84007;SDS011;74070;50.948;6.954;2023-12-20T12:52:10;20.30;;;3.57;;
84007;SDS011;74070;50.948;6.954;2023-12-20T12:54:36;6.87;;;2.00;;
84007;SDS011;74070;50.948;6.954;2023-12-20T12:57:03;13.80;;;4.73;;
84007;SDS011;74070;50.948;6.954;2023-12-20T12:59:30;11.07;;;2.73;;
84007;SDS011;74070;50.948;6.954;2023-12-20T13:01:57;8.33;;;2.60;;
84007;SDS011;74070;50.948;6.954;2023-12-20T13:04:24;11.23;;;3.33;;
84007;SDS011;74070;50.948;6.954;2023-12-20T13:06:50;17.27;;;4.00;;
84007;SDS011;74070;50.948;6.954;2023-12-20T13:09:17;15.00;;;4.13;;
84007;SDS011;74070;50.948;6.954;2023-12-20T13:11:43;14.23;;;3.27;;
84007;SDS011;74070;50.948;6.954;2023-12-20T13:14:10;6.33;;;3.40;;
84007;SDS011;74070;50.948;6.954;2023-12-20T13:16:36;16.70;;;4.03;;
84007;SDS011;74070;50.948;6.954;2023-12-20T13:19:03;7.20;;;3.30;;
84007;SDS011;74070;50.948;6.954;2023-12-20T13:21:30;11.37;;;3.30;;
84007;SDS011;74070;50.948;6.954;2023-12-20T13:23:56;13.37;;;3.63;;
84007;SDS011;74070;50.948;6.954;2023-12-20T13:26:23;11.17;;;2.93;;
84007;SDS011;74070;50.948;6.954;2023-12-20T13:28:50;13.77;;;3.80;;
84007;SDS011;74070;50.948;6.954;2023-12-20T13:31:17;17.80;;;3.07;;
84007;SDS011;74070;50.948;6.954;2023-12-20T13:33:43;9.90;;;3.93;;
84007;SDS011;74070;50.948;6.954;2023-12-20T13:36:11;12.70;;;3.13;;
84007;SDS011;74070;50.948;6.954;2023-12-20T13:38:38;16.67;;;4.13;;
84007;SDS011;74070;50.948;6.954;2023-12-20T13:41:04;15.33;;;5.53;;
84007;SDS011;74070;50.948;6.954;2023-12-20T13:43:31;10.10;;;3.43;;
84007;SDS011;74070;50.948;6.954;2023-12-20T13:45:58;9.30;;;2.80;;
84007;SDS011;74070;50.948;6.954;2023-12-20T13:48:25;13.53;;;4.40;;
84007;SDS011;74070;50.948;6.954;2023-12-20T13:50:52;11.63;;;3.53;;
84007;SDS011;74070;50.948;6.954;2023-12-20T13:53:20;4.67;;;2.37;;
84007;SDS011;74070;50.948;6.954;2023-12-20T13:55:47;11.10;;;3.00;;
84007;SDS011;74070;50.948;6.954;2023-12-20T13:58:13;5.40;;;2.13;;
84007;SDS011;74070;50.948;6.954;2023-12-20T14:00:40;8.83;;;2.97;;
84007;SDS011;74070;50.948;6.954;2023-12-20T14:03:07;7.73;;;2.87;;
84007;SDS011;74070;50.948;6.954;2023-12-20T14:05:33;9.60;;;2.87;;
84007;SDS011;74070;50.948;6.954;2023-12-20T14:08:00;9.13;;;2.60;;
84007;SDS011;74070;50.948;6.954;2023-12-20T14:10:26;9.63;;;2.97;;
84007;SDS011;74070;50.948;6.954;2023-12-20T14:12:53;6.80;;;2.60;;
84007;SDS011;74070;50.948;6.954;2023-12-20T14:15:20;10.33;;;3.20;;
84007;SDS011;74070;50.948;6.954;2023-12-20T14:17:46;10.57;;;3.10;;
84007;SDS011;74070;50.948;6.954;2023-12-20T14:20:13;13.60;;;3.27;;
84007;SDS011;74070;50.948;6.954;2023-12-20T14:22:39;11.90;;;3.23;;
84007;SDS011;74070;50.948;6.954;2023-12-20T14:25:07;6.10;;;2.17;;
84007;SDS011;74070;50.948;6.954;2023-12-20T14:27:34;11.37;;;3.17;;
84007;SDS011;74070;50.948;6.954;2023-12-20T14:30:00;9.03;;;3.00;;
84007;SDS011;74070;50.948;6.954;2023-12-20T14:32:27;8.23;;;2.60;;
84007;SDS011;74070;50.948;6.954;2023-12-20T14:34:53;14.80;;;2.83;;
84007;SDS011;74070;50.948;6.954;2023-12-20T14:37:20;8.77;;;3.30;;